sensor_id;sensor_type;location;lat;lon;timestamp;P1;durP1;ratioP1;P2;durP2;ratioP2
21281;SDS011;10800;53.096;18.328;2022-09-12T00:02:58;6.20;;;3.20;;
21281;SDS011;10800;53.096;18.328;2022-09-12T00:07:58;8.00;;;3.00;;
21281;SDS011;10800;53.096;18.328;2022-09-12T00:13:04;7.73;;;3.00;;
21281;SDS011;10800;53.096;18.328;2022-09-12T00:18:11;8.47;;;2.73;;
21281;SDS011;10800;53.096;18.328;2022-09-12T00:23:19;5.53;;;3.20;;
21281;SDS011;10800;53.096;18.328;2022-09-12T00:28:25;7.53;;;3.43;;
21281;SDS011;10800;53.096;18.328;2022-09-12T00:33:30;6.97;;;3.13;;
21281;SDS011;10800;53.096;18.328;2022-09-12T00:38:36;7.60;;;3.37;;
21281;SDS011;10800;53.096;18.328;2022-09-12T00:43:45;6.13;;;3.37;;
21281;SDS011;10800;53.096;18.328;2022-09-12T00:54:20;6.63;;;4.27;;
21281;SDS011;10800;53.096;18.328;2022-09-12T00:59:28;6.17;;;4.07;;
21281;SDS011;10800;53.096;18.328;2022-09-12T01:04:39;9.93;;;3.73;;
21281;SDS011;10800;53.096;18.328;2022-09-12T01:09:46;9.67;;;4.10;;
21281;SDS011;10800;53.096;18.328;2022-09-12T01:14:52;7.43;;;4.10;;
21281;SDS011;10800;53.096;18.328;2022-09-12T01:30:23;10.53;;;4.80;;
21281;SDS011;10800;53.096;18.328;2022-09-12T01:41:23;12.87;;;5.20;;
21281;SDS011;10800;53.096;18.328;2022-09-12T01:51:38;7.27;;;3.97;;
21281;SDS011;10800;53.096;18.328;2022-09-12T01:57:02;6.83;;;3.67;;
21281;SDS011;10800;53.096;18.328;2022-09-12T02:02:11;5.57;;;3.57;;
21281;SDS011;10800;53.096;18.328;2022-09-12T02:07:23;5.67;;;2.97;;
21281;SDS011;10800;53.096;18.328;2022-09-12T02:12:33;11.47;;;4.23;;
21281;SDS011;10800;53.096;18.328;2022-09-12T02:17:40;6.90;;;3.43;;
21281;SDS011;10800;53.096;18.328;2022-09-12T02:22:46;12.03;;;4.10;;
21281;SDS011;10800;53.096;18.328;2022-09-12T02:28:03;5.13;;;3.60;;
21281;SDS011;10800;53.096;18.328;2022-09-12T02:33:17;5.60;;;3.83;;
21281;SDS011;10800;53.096;18.328;2022-09-12T02:38:41;7.57;;;3.70;;
21281;SDS011;10800;53.096;18.328;2022-09-12T02:43:51;8.03;;;4.27;;
21281;SDS011;10800;53.096;18.328;2022-09-12T02:48:57;8.63;;;4.23;;
21281;SDS011;10800;53.096;18.328;2022-09-12T02:54:04;9.97;;;5.17;;
21281;SDS011;10800;53.096;18.328;2022-09-12T02:59:12;12.43;;;4.83;;
21281;SDS011;10800;53.096;18.328;2022-09-12T03:26:21;35.37;;;11.40;;
21281;SDS011;10800;53.096;18.328;2022-09-12T03:31:50;12.60;;;6.50;;
21281;SDS011;10800;53.096;18.328;2022-09-12T03:37:03;16.50;;;7.17;;
21281;SDS011;10800;53.096;18.328;2022-09-12T03:42:22;41.07;;;12.43;;
21281;SDS011;10800;53.096;18.328;2022-09-12T03:47:32;39.03;;;13.27;;
21281;SDS011;10800;53.096;18.328;2022-09-12T03:52:48;39.90;;;14.13;;
21281;SDS011;10800;53.096;18.328;2022-09-12T03:58:05;33.00;;;11.63;;
21281;SDS011;10800;53.096;18.328;2022-09-12T04:03:21;24.73;;;10.20;;
21281;SDS011;10800;53.096;18.328;2022-09-12T04:08:34;19.03;;;8.60;;
21281;SDS011;10800;53.096;18.328;2022-09-12T04:14:17;16.10;;;7.57;;
21281;SDS011;10800;53.096;18.328;2022-09-12T04:19:29;14.30;;;6.70;;
21281;SDS011;10800;53.096;18.328;2022-09-12T04:30:51;16.03;;;6.47;;
21281;SDS011;10800;53.096;18.328;2022-09-12T04:36:09;12.80;;;6.13;;
21281;SDS011;10800;53.096;18.328;2022-09-12T04:41:15;12.13;;;5.57;;
21281;SDS011;10800;53.096;18.328;2022-09-12T04:46:40;8.23;;;4.57;;
21281;SDS011;10800;53.096;18.328;2022-09-12T04:51:45;8.67;;;4.60;;
21281;SDS011;10800;53.096;18.328;2022-09-12T04:56:50;10.90;;;5.03;;
21281;SDS011;10800;53.096;18.328;2022-09-12T05:01:57;13.37;;;6.17;;
21281;SDS011;10800;53.096;18.328;2022-09-12T05:07:03;12.40;;;5.07;;
21281;SDS011;10800;53.096;18.328;2022-09-12T05:12:12;10.33;;;4.57;;
21281;SDS011;10800;53.096;18.328;2022-09-12T05:17:24;15.70;;;4.80;;
21281;SDS011;10800;53.096;18.328;2022-09-12T05:22:41;9.13;;;4.60;;
21281;SDS011;10800;53.096;18.328;2022-09-12T05:27:51;11.80;;;5.17;;
21281;SDS011;10800;53.096;18.328;2022-09-12T05:32:56;7.20;;;4.63;;
21281;SDS011;10800;53.096;18.328;2022-09-12T05:38:03;6.37;;;4.67;;
21281;SDS011;10800;53.096;18.328;2022-09-12T05:43:11;8.97;;;4.70;;
21281;SDS011;10800;53.096;18.328;2022-09-12T05:48:17;12.83;;;4.70;;
21281;SDS011;10800;53.096;18.328;2022-09-12T05:53:28;10.07;;;4.40;;
21281;SDS011;10800;53.096;18.328;2022-09-12T05:58:35;5.50;;;4.37;;
21281;SDS011;10800;53.096;18.328;2022-09-12T06:03:42;5.63;;;4.00;;
21281;SDS011;10800;53.096;18.328;2022-09-12T06:08:50;10.90;;;5.80;;
21281;SDS011;10800;53.096;18.328;2022-09-12T06:13:59;15.73;;;9.00;;
21281;SDS011;10800;53.096;18.328;2022-09-12T06:19:15;6.63;;;5.47;;
21281;SDS011;10800;53.096;18.328;2022-09-12T06:24:24;9.83;;;3.60;;
21281;SDS011;10800;53.096;18.328;2022-09-12T06:29:30;6.53;;;4.20;;
21281;SDS011;10800;53.096;18.328;2022-09-12T06:34:38;14.83;;;7.13;;
21281;SDS011;10800;53.096;18.328;2022-09-12T06:39:44;4.87;;;4.20;;
21281;SDS011;10800;53.096;18.328;2022-09-12T06:44:51;5.10;;;3.07;;
21281;SDS011;10800;53.096;18.328;2022-09-12T06:50:06;37.43;;;22.57;;
21281;SDS011;10800;53.096;18.328;2022-09-12T06:55:12;7.63;;;4.90;;
21281;SDS011;10800;53.096;18.328;2022-09-12T07:00:19;6.73;;;3.70;;
21281;SDS011;10800;53.096;18.328;2022-09-12T07:05:24;6.90;;;3.73;;
21281;SDS011;10800;53.096;18.328;2022-09-12T07:10:30;8.53;;;6.87;;
21281;SDS011;10800;53.096;18.328;2022-09-12T07:15:37;11.90;;;7.70;;
21281;SDS011;10800;53.096;18.328;2022-09-12T07:20:54;84.00;;;48.13;;
21281;SDS011;10800;53.096;18.328;2022-09-12T07:26:00;5.40;;;2.20;;
21281;SDS011;10800;53.096;18.328;2022-09-12T07:31:08;7.60;;;1.67;;
21281;SDS011;10800;53.096;18.328;2022-09-12T07:36:16;4.20;;;2.13;;
21281;SDS011;10800;53.096;18.328;2022-09-12T07:41:27;4.60;;;1.70;;
21281;SDS011;10800;53.096;18.328;2022-09-12T07:46:34;3.90;;;1.70;;
21281;SDS011;10800;53.096;18.328;2022-09-12T07:51:40;7.53;;;1.67;;
21281;SDS011;10800;53.096;18.328;2022-09-12T07:56:46;6.87;;;3.53;;
21281;SDS011;10800;53.096;18.328;2022-09-12T08:01:51;2.27;;;1.50;;
21281;SDS011;10800;53.096;18.328;2022-09-12T08:06:57;3.20;;;1.70;;
21281;SDS011;10800;53.096;18.328;2022-09-12T08:12:02;3.03;;;2.03;;
21281;SDS011;10800;53.096;18.328;2022-09-12T08:17:08;4.10;;;1.60;;
21281;SDS011;10800;53.096;18.328;2022-09-12T08:22:26;1.77;;;1.50;;
21281;SDS011;10800;53.096;18.328;2022-09-12T08:27:34;2.00;;;1.60;;
21281;SDS011;10800;53.096;18.328;2022-09-12T08:32:42;4.00;;;1.33;;
21281;SDS011;10800;53.096;18.328;2022-09-12T08:37:47;1.10;;;1.00;;
21281;SDS011;10800;53.096;18.328;2022-09-12T08:43:02;1.97;;;1.00;;
21281;SDS011;10800;53.096;18.328;2022-09-12T08:54:56;4.40;;;1.73;;
21281;SDS011;10800;53.096;18.328;2022-09-12T09:00:12;1.93;;;1.17;;
21281;SDS011;10800;53.096;18.328;2022-09-12T09:16:27;3.70;;;1.13;;
21281;SDS011;10800;53.096;18.328;2022-09-12T09:26:56;0.97;;;0.70;;
21281;SDS011;10800;53.096;18.328;2022-09-12T09:32:09;6.03;;;1.30;;
21281;SDS011;10800;53.096;18.328;2022-09-12T09:37:26;3.40;;;1.10;;
21281;SDS011;10800;53.096;18.328;2022-09-12T09:42:52;2.77;;;1.00;;
21281;SDS011;10800;53.096;18.328;2022-09-12T09:53:49;2.13;;;1.00;;
21281;SDS011;10800;53.096;18.328;2022-09-12T09:58:52;2.83;;;0.97;;
21281;SDS011;10800;53.096;18.328;2022-09-12T10:03:57;2.47;;;1.00;;
21281;SDS011;10800;53.096;18.328;2022-09-12T10:14:36;2.83;;;1.00;;
21281;SDS011;10800;53.096;18.328;2022-09-12T10:19:43;1.20;;;1.10;;
21281;SDS011;10800;53.096;18.328;2022-09-12T10:24:51;2.63;;;0.90;;
21281;SDS011;10800;53.096;18.328;2022-09-12T10:35:24;4.70;;;1.27;;
21281;SDS011;10800;53.096;18.328;2022-09-12T10:40:37;1.57;;;0.90;;
21281;SDS011;10800;53.096;18.328;2022-09-12T10:45:48;3.15;;;1.05;;
21281;SDS011;10800;53.096;18.328;2022-09-12T10:50:53;1.12;;;0.90;;
21281;SDS011;10800;53.096;18.328;2022-09-12T11:20:34;1.12;;;0.93;;
21281;SDS011;10800;53.096;18.328;2022-09-12T12:11:23;4.15;;;1.30;;
21281;SDS011;10800;53.096;18.328;2022-09-12T12:16:05;3.45;;;1.77;;
21281;SDS011;10800;53.096;18.328;2022-09-12T12:43:02;3.20;;;1.40;;
21281;SDS011;10800;53.096;18.328;2022-09-12T12:48:13;1.77;;;1.30;;
21281;SDS011;10800;53.096;18.328;2022-09-12T12:53:24;2.65;;;1.52;;
21281;SDS011;10800;53.096;18.328;2022-09-12T12:58:34;3.98;;;1.30;;
21281;SDS011;10800;53.096;18.328;2022-09-12T13:03:51;2.45;;;1.85;;
21281;SDS011;10800;53.096;18.328;2022-09-12T13:09:16;6.97;;;1.80;;
21281;SDS011;10800;53.096;18.328;2022-09-12T13:19:45;3.42;;;2.20;;
21281;SDS011;10800;53.096;18.328;2022-09-12T13:24:53;4.37;;;2.77;;
21281;SDS011;10800;53.096;18.328;2022-09-12T13:30:10;13.10;;;6.63;;
21281;SDS011;10800;53.096;18.328;2022-09-12T13:35:24;17.43;;;7.93;;
21281;SDS011;10800;53.096;18.328;2022-09-12T13:40:41;11.47;;;6.17;;
21281;SDS011;10800;53.096;18.328;2022-09-12T13:46:02;7.43;;;2.67;;
21281;SDS011;10800;53.096;18.328;2022-09-12T13:51:21;10.23;;;4.70;;
21281;SDS011;10800;53.096;18.328;2022-09-12T13:56:27;4.67;;;2.50;;
21281;SDS011;10800;53.096;18.328;2022-09-12T14:01:37;3.57;;;2.30;;
21281;SDS011;10800;53.096;18.328;2022-09-12T14:06:47;3.20;;;1.90;;
21281;SDS011;10800;53.096;18.328;2022-09-12T14:11:54;6.50;;;3.20;;
21281;SDS011;10800;53.096;18.328;2022-09-12T14:17:48;8.57;;;4.00;;
21281;SDS011;10800;53.096;18.328;2022-09-12T14:22:25;2.63;;;1.50;;
21281;SDS011;10800;53.096;18.328;2022-09-12T14:27:35;4.73;;;1.60;;
21281;SDS011;10800;53.096;18.328;2022-09-12T14:32:40;3.90;;;1.87;;
21281;SDS011;10800;53.096;18.328;2022-09-12T14:37:47;2.07;;;1.80;;
21281;SDS011;10800;53.096;18.328;2022-09-12T14:43:58;7.10;;;2.20;;
21281;SDS011;10800;53.096;18.328;2022-09-12T14:53:48;3.10;;;1.50;;
21281;SDS011;10800;53.096;18.328;2022-09-12T14:59:18;1.60;;;1.40;;
21281;SDS011;10800;53.096;18.328;2022-09-12T15:04:06;4.65;;;1.70;;
21281;SDS011;10800;53.096;18.328;2022-09-12T15:09:12;2.05;;;1.62;;
21281;SDS011;10800;53.096;18.328;2022-09-12T15:14:17;2.00;;;1.43;;
21281;SDS011;10800;53.096;18.328;2022-09-12T15:19:25;3.37;;;1.57;;
21281;SDS011;10800;53.096;18.328;2022-09-12T15:24:29;2.07;;;1.60;;
21281;SDS011;10800;53.096;18.328;2022-09-12T15:29:35;1.87;;;1.57;;
21281;SDS011;10800;53.096;18.328;2022-09-12T15:34:45;4.22;;;1.60;;
21281;SDS011;10800;53.096;18.328;2022-09-12T15:39:51;2.40;;;1.60;;
21281;SDS011;10800;53.096;18.328;2022-09-12T15:44:56;3.23;;;1.67;;
21281;SDS011;10800;53.096;18.328;2022-09-12T15:50:04;3.37;;;1.70;;
21281;SDS011;10800;53.096;18.328;2022-09-12T15:55:32;5.37;;;2.00;;
21281;SDS011;10800;53.096;18.328;2022-09-12T16:00:21;2.57;;;1.60;;
21281;SDS011;10800;53.096;18.328;2022-09-12T16:05:27;2.37;;;1.67;;
21281;SDS011;10800;53.096;18.328;2022-09-12T16:10:33;4.03;;;1.60;;
21281;SDS011;10800;53.096;18.328;2022-09-12T16:15:40;2.47;;;1.50;;
21281;SDS011;10800;53.096;18.328;2022-09-12T16:20:45;3.20;;;1.67;;
21281;SDS011;10800;53.096;18.328;2022-09-12T16:25:56;3.67;;;2.20;;
21281;SDS011;10800;53.096;18.328;2022-09-12T16:31:03;4.23;;;2.27;;
21281;SDS011;10800;53.096;18.328;2022-09-12T16:36:11;1.97;;;1.77;;
21281;SDS011;10800;53.096;18.328;2022-09-12T16:41:23;3.67;;;2.17;;
21281;SDS011;10800;53.096;18.328;2022-09-12T16:46:28;3.60;;;2.70;;
21281;SDS011;10800;53.096;18.328;2022-09-12T16:51:36;11.47;;;3.20;;
21281;SDS011;10800;53.096;18.328;2022-09-12T16:56:44;7.70;;;3.00;;
21281;SDS011;10800;53.096;18.328;2022-09-12T17:01:49;15.50;;;3.70;;
21281;SDS011;10800;53.096;18.328;2022-09-12T17:06:55;4.60;;;3.37;;
21281;SDS011;10800;53.096;18.328;2022-09-12T17:12:02;9.63;;;3.27;;
21281;SDS011;10800;53.096;18.328;2022-09-12T17:17:39;4.83;;;2.93;;
21281;SDS011;10800;53.096;18.328;2022-09-12T17:22:45;6.50;;;2.83;;
21281;SDS011;10800;53.096;18.328;2022-09-12T17:27:50;5.27;;;3.10;;
21281;SDS011;10800;53.096;18.328;2022-09-12T17:33:15;13.97;;;5.03;;
21281;SDS011;10800;53.096;18.328;2022-09-12T17:38:32;12.20;;;6.20;;
21281;SDS011;10800;53.096;18.328;2022-09-12T17:43:40;21.20;;;9.23;;
21281;SDS011;10800;53.096;18.328;2022-09-12T17:49:08;32.03;;;15.20;;
21281;SDS011;10800;53.096;18.328;2022-09-12T17:54:25;29.37;;;17.13;;
21281;SDS011;10800;53.096;18.328;2022-09-12T17:59:30;27.10;;;16.40;;
21281;SDS011;10800;53.096;18.328;2022-09-12T18:04:48;19.17;;;11.77;;
21281;SDS011;10800;53.096;18.328;2022-09-12T18:09:56;23.47;;;11.77;;
21281;SDS011;10800;53.096;18.328;2022-09-12T18:15:33;26.90;;;14.07;;
21281;SDS011;10800;53.096;18.328;2022-09-12T18:20:39;24.83;;;12.83;;
21281;SDS011;10800;53.096;18.328;2022-09-12T18:25:47;25.50;;;14.47;;
21281;SDS011;10800;53.096;18.328;2022-09-12T18:30:52;23.53;;;12.23;;
21281;SDS011;10800;53.096;18.328;2022-09-12T18:36:04;22.77;;;11.13;;
21281;SDS011;10800;53.096;18.328;2022-09-12T18:41:13;21.00;;;10.27;;
21281;SDS011;10800;53.096;18.328;2022-09-12T18:46:20;20.17;;;9.63;;
21281;SDS011;10800;53.096;18.328;2022-09-12T18:51:29;15.33;;;9.10;;
21281;SDS011;10800;53.096;18.328;2022-09-12T18:56:39;29.30;;;13.90;;
21281;SDS011;10800;53.096;18.328;2022-09-12T19:01:52;25.70;;;10.73;;
21281;SDS011;10800;53.096;18.328;2022-09-12T19:06:57;19.73;;;10.40;;
21281;SDS011;10800;53.096;18.328;2022-09-12T19:12:06;22.17;;;10.80;;
21281;SDS011;10800;53.096;18.328;2022-09-12T19:17:16;29.73;;;13.57;;
21281;SDS011;10800;53.096;18.328;2022-09-12T19:23:00;32.27;;;14.83;;
21281;SDS011;10800;53.096;18.328;2022-09-12T19:28:06;26.20;;;13.80;;
21281;SDS011;10800;53.096;18.328;2022-09-12T19:33:11;22.67;;;11.43;;
21281;SDS011;10800;53.096;18.328;2022-09-12T19:38:17;27.97;;;12.90;;
21281;SDS011;10800;53.096;18.328;2022-09-12T19:43:23;30.17;;;12.47;;
21281;SDS011;10800;53.096;18.328;2022-09-12T19:48:28;26.77;;;12.60;;
21281;SDS011;10800;53.096;18.328;2022-09-12T19:53:34;31.70;;;14.17;;
21281;SDS011;10800;53.096;18.328;2022-09-12T19:58:42;30.07;;;14.00;;
21281;SDS011;10800;53.096;18.328;2022-09-12T20:03:51;38.67;;;15.80;;
21281;SDS011;10800;53.096;18.328;2022-09-12T20:08:56;38.87;;;16.57;;
21281;SDS011;10800;53.096;18.328;2022-09-12T20:14:02;34.27;;;15.13;;
21281;SDS011;10800;53.096;18.328;2022-09-12T20:19:09;27.70;;;13.63;;
21281;SDS011;10800;53.096;18.328;2022-09-12T20:24:14;36.13;;;17.90;;
21281;SDS011;10800;53.096;18.328;2022-09-12T20:29:20;50.27;;;22.97;;
21281;SDS011;10800;53.096;18.328;2022-09-12T20:34:26;47.83;;;22.17;;
21281;SDS011;10800;53.096;18.328;2022-09-12T20:39:32;40.53;;;20.33;;
21281;SDS011;10800;53.096;18.328;2022-09-12T20:44:37;37.53;;;19.93;;
21281;SDS011;10800;53.096;18.328;2022-09-12T20:49:43;44.33;;;19.67;;
21281;SDS011;10800;53.096;18.328;2022-09-12T20:54:48;33.23;;;15.80;;
21281;SDS011;10800;53.096;18.328;2022-09-12T20:59:54;30.33;;;13.03;;
21281;SDS011;10800;53.096;18.328;2022-09-12T21:04:59;22.23;;;12.17;;
21281;SDS011;10800;53.096;18.328;2022-09-12T21:10:05;20.87;;;11.23;;
21281;SDS011;10800;53.096;18.328;2022-09-12T21:15:10;22.60;;;10.57;;
21281;SDS011;10800;53.096;18.328;2022-09-12T21:20:16;21.23;;;11.27;;
21281;SDS011;10800;53.096;18.328;2022-09-12T21:25:21;17.80;;;9.57;;
21281;SDS011;10800;53.096;18.328;2022-09-12T21:30:27;17.73;;;8.70;;
21281;SDS011;10800;53.096;18.328;2022-09-12T21:35:35;18.67;;;8.77;;
21281;SDS011;10800;53.096;18.328;2022-09-12T21:40:42;32.53;;;14.23;;
21281;SDS011;10800;53.096;18.328;2022-09-12T21:45:55;43.83;;;18.83;;
21281;SDS011;10800;53.096;18.328;2022-09-12T21:50:59;39.80;;;18.87;;
21281;SDS011;10800;53.096;18.328;2022-09-12T21:56:12;42.63;;;18.27;;
21281;SDS011;10800;53.096;18.328;2022-09-12T22:01:18;51.67;;;20.10;;
21281;SDS011;10800;53.096;18.328;2022-09-12T22:06:28;50.70;;;21.60;;
21281;SDS011;10800;53.096;18.328;2022-09-12T22:11:57;53.00;;;21.30;;
21281;SDS011;10800;53.096;18.328;2022-09-12T22:17:02;53.13;;;22.10;;
21281;SDS011;10800;53.096;18.328;2022-09-12T22:22:07;49.73;;;20.17;;
21281;SDS011;10800;53.096;18.328;2022-09-12T22:27:31;30.37;;;14.87;;
21281;SDS011;10800;53.096;18.328;2022-09-12T22:32:36;35.73;;;15.07;;
21281;SDS011;10800;53.096;18.328;2022-09-12T22:37:41;28.80;;;13.70;;
21281;SDS011;10800;53.096;18.328;2022-09-12T22:42:50;27.73;;;13.00;;
21281;SDS011;10800;53.096;18.328;2022-09-12T22:48:13;35.70;;;14.80;;
21281;SDS011;10800;53.096;18.328;2022-09-12T22:54:08;38.17;;;15.87;;
21281;SDS011;10800;53.096;18.328;2022-09-12T22:59:14;35.70;;;15.80;;
21281;SDS011;10800;53.096;18.328;2022-09-12T23:04:21;35.37;;;16.13;;
21281;SDS011;10800;53.096;18.328;2022-09-12T23:09:26;34.63;;;15.50;;
21281;SDS011;10800;53.096;18.328;2022-09-12T23:20:28;44.07;;;20.40;;
21281;SDS011;10800;53.096;18.328;2022-09-12T23:25:41;47.87;;;20.83;;
21281;SDS011;10800;53.096;18.328;2022-09-12T23:30:52;43.73;;;17.93;;
21281;SDS011;10800;53.096;18.328;2022-09-12T23:36:06;39.83;;;15.97;;
21281;SDS011;10800;53.096;18.328;2022-09-12T23:41:18;35.40;;;16.10;;
21281;SDS011;10800;53.096;18.328;2022-09-12T23:46:29;29.73;;;14.53;;
21281;SDS011;10800;53.096;18.328;2022-09-12T23:51:37;28.03;;;14.07;;
21281;SDS011;10800;53.096;18.328;2022-09-12T23:56:46;25.50;;;13.30;;
